Tacoma/McChord AFB, Washington
Current Conditions -  °F | °C
As of 12:58 AM on Saturday 20 Dec 2014 (Local Time) from KTCM Reporting Station
Light Rain Light Rain  
Wind Chill: 42°   Ceiling: 3900
Heat Index: 45°   Visibility: 10mi
Dew Point: 43°   Wind: 6mph
Humidity: 93%   Direction: 130°SE
Pressure: 29.83"   Gusts: NA
Location:  47.15°N, 122.48°W
Report Text: KTCM 200858Z AUTO 13005KT 10SM -RA FEW022 BKN039 OVC049 07/06 A2983 RMK AO2 SLP106 P0002 60003 T00730063 58015
Loading
Personal Weather Stations






























Interactive Weather Map New forecast layout! Learn more

10-Day Weather Forecast

Advertisements
Track Severe Weather on mobile